createdAt,value
2023-05-14T00:01:34.415Z,72.29
2023-05-14T00:04:03.250Z,72.10
2023-05-14T00:06:32.043Z,72.19
2023-05-14T00:09:02.128Z,72.22
2023-05-14T00:11:30.800Z,72.14
2023-05-14T00:13:59.443Z,72.39
2023-05-14T00:16:28.075Z,72.25
2023-05-14T00:18:57.193Z,72.50
2023-05-14T00:21:26.025Z,72.54
2023-05-14T00:23:54.758Z,72.77
2023-05-14T00:26:24.837Z,72.72
2023-05-14T00:28:53.629Z,73.06
2023-05-14T00:31:22.357Z,73.06
2023-05-14T00:33:51.030Z,73.01
2023-05-14T00:36:19.681Z,73.39
2023-05-14T00:38:48.345Z,73.30
2023-05-14T00:41:17.029Z,73.28
2023-05-14T00:43:47.172Z,73.06
2023-05-14T00:46:17.402Z,73.09
2023-05-14T00:48:46.966Z,72.98
2023-05-14T00:51:15.912Z,72.78
2023-05-14T00:53:44.814Z,73.28
2023-05-14T00:56:14.789Z,73.57
2023-05-14T00:58:43.510Z,74.06
2023-05-14T01:01:15.370Z,73.83
2023-05-14T01:03:45.338Z,73.83
2023-05-14T01:06:25.254Z,73.77
2023-05-14T01:09:04.595Z,73.51
2023-05-14T01:11:41.808Z,73.37
2023-05-14T01:14:21.665Z,73.11
2023-05-14T01:16:57.709Z,73.31
2023-05-14T01:19:41.076Z,73.46
2023-05-14T01:22:12.138Z,73.11
2023-05-14T01:24:41.689Z,73.35
2023-05-14T01:27:19.628Z,73.57
2023-05-14T01:29:58.234Z,73.51
2023-05-14T01:32:29.610Z,73.68
2023-05-14T01:35:02.649Z,74.31
2023-05-14T01:37:34.193Z,74.32
2023-05-14T01:40:04.158Z,74.57
2023-05-14T01:42:34.306Z,74.98
2023-05-14T01:45:04.175Z,75.35
2023-05-14T01:47:33.140Z,75.47
2023-05-14T01:50:01.828Z,76.29
2023-05-14T01:52:30.531Z,76.05
2023-05-14T01:55:00.704Z,75.82
2023-05-14T01:57:29.427Z,75.73
2023-05-14T01:59:58.114Z,75.54
2023-05-14T02:02:27.050Z,75.45
2023-05-14T02:04:55.945Z,75.28
2023-05-14T02:07:24.650Z,74.96
2023-05-14T02:09:54.669Z,74.50
2023-05-14T02:12:24.796Z,74.53
2023-05-14T02:14:53.478Z,74.91
2023-05-14T02:17:22.178Z,75.07
2023-05-14T02:19:50.829Z,75.07
2023-05-14T02:22:19.871Z,74.80
2023-05-14T02:24:49.768Z,74.95
2023-05-14T02:27:20.121Z,75.52
2023-05-14T02:29:51.170Z,75.22
2023-05-14T02:32:19.896Z,75.19
2023-05-14T02:34:48.601Z,75.34
2023-05-14T02:37:17.273Z,75.38
2023-05-14T02:39:45.926Z,74.74
2023-05-14T02:42:14.620Z,75.89
2023-05-14T02:44:43.310Z,76.49
2023-05-14T02:47:14.404Z,77.36
2023-05-14T02:49:43.138Z,77.65
2023-05-14T02:52:11.935Z,75.93
2023-05-14T02:54:40.655Z,75.50
2023-05-14T02:57:09.331Z,75.74
2023-05-14T02:59:38.134Z,76.72
2023-05-14T03:02:07.750Z,76.94
2023-05-14T03:04:38.376Z,77.01
2023-05-14T03:07:07.335Z,76.99
2023-05-14T03:09:38.113Z,76.83
2023-05-14T03:12:08.831Z,76.25
2023-05-14T03:14:37.475Z,76.38
2023-05-14T03:17:06.745Z,76.41
2023-05-14T03:19:35.563Z,76.18
2023-05-14T03:22:06.508Z,75.78
2023-05-14T03:24:36.363Z,75.98
2023-05-14T03:27:05.473Z,76.64
2023-05-14T03:29:34.182Z,76.05
2023-05-14T03:32:03.191Z,75.37
2023-05-14T03:34:31.957Z,75.88
2023-05-14T03:37:00.855Z,75.97
2023-05-14T03:39:31.038Z,75.67
2023-05-14T03:41:59.785Z,75.99
2023-05-14T03:44:28.679Z,76.31
2023-05-14T03:46:57.353Z,76.02
2023-05-14T03:49:27.327Z,75.73
2023-05-14T03:51:57.447Z,76.21
2023-05-14T03:54:26.751Z,75.61
2023-05-14T03:56:57.311Z,75.66
2023-05-14T03:59:26.162Z,75.82
2023-05-14T04:01:55.785Z,75.53
2023-05-14T04:04:24.904Z,75.34
2023-05-14T04:06:53.679Z,75.30
2023-05-14T04:09:24.278Z,75.14
2023-05-14T04:11:53.414Z,74.72
2023-05-14T04:14:27.072Z,75.44
2023-05-14T04:16:55.991Z,75.13
2023-05-14T04:19:24.969Z,75.03
2023-05-14T04:21:53.913Z,74.75
2023-05-14T04:24:23.752Z,74.53
2023-05-14T04:26:52.753Z,73.88
2023-05-14T04:29:21.466Z,73.99
2023-05-14T04:31:52.859Z,74.79
2023-05-14T04:34:21.592Z,74.60
2023-05-14T04:36:50.343Z,74.31
2023-05-14T04:39:19.236Z,74.32
2023-05-14T04:41:50.241Z,74.61
2023-05-14T04:44:22.098Z,74.48
2023-05-14T04:46:52.918Z,74.75
2023-05-14T04:49:22.797Z,75.21
2023-05-14T04:51:51.639Z,75.20
2023-05-14T04:54:29.518Z,75.25
2023-05-14T04:57:03.082Z,75.37
2023-05-14T04:59:31.918Z,75.11
2023-05-14T05:02:02.362Z,75.77
2023-05-14T05:04:32.457Z,75.61
2023-05-14T05:07:03.051Z,75.39
2023-05-14T05:09:32.110Z,75.30
2023-05-14T05:12:01.636Z,75.40
2023-05-14T05:14:30.281Z,75.43
2023-05-14T05:16:59.059Z,75.18
2023-05-14T05:19:42.249Z,75.65
2023-05-14T05:22:14.137Z,75.73
2023-05-14T05:24:42.941Z,76.26
2023-05-14T05:27:11.644Z,76.13
2023-05-14T05:29:40.830Z,76.56
2023-05-14T05:32:14.065Z,76.63
2023-05-14T05:34:44.796Z,76.44
2023-05-14T05:37:15.352Z,76.89
2023-05-14T05:39:44.598Z,77.44
2023-05-14T05:42:13.487Z,77.07
2023-05-14T05:44:45.062Z,77.35
2023-05-14T05:47:15.676Z,77.26
2023-05-14T05:49:46.316Z,77.42
2023-05-14T05:52:21.419Z,77.25
2023-05-14T05:54:50.756Z,77.11
2023-05-14T05:57:24.548Z,76.90
2023-05-14T05:59:55.690Z,76.53
2023-05-14T06:02:25.716Z,76.17
2023-05-14T06:04:58.034Z,76.23
2023-05-14T06:07:28.002Z,75.91
2023-05-14T06:09:56.627Z,75.67
2023-05-14T06:12:25.940Z,75.54
2023-05-14T06:14:57.873Z,75.77
2023-05-14T06:17:29.285Z,75.16
2023-05-14T06:19:59.374Z,74.71
2023-05-14T06:22:28.444Z,74.42
2023-05-14T06:24:57.066Z,72.81
2023-05-14T06:27:25.839Z,71.89
2023-05-14T06:29:55.187Z,71.11
2023-05-14T06:32:25.509Z,71.31
2023-05-14T06:34:54.596Z,69.47
2023-05-14T06:37:24.953Z,69.46
2023-05-14T06:39:55.220Z,68.81
2023-05-14T06:42:25.262Z,69.59
2023-05-14T06:44:54.655Z,70.03
2023-05-14T06:47:24.863Z,70.18
2023-05-14T06:49:54.141Z,69.09
2023-05-14T06:52:25.452Z,67.48
2023-05-14T06:54:54.392Z,70.34
2023-05-14T06:57:23.151Z,69.44
2023-05-14T06:59:52.314Z,69.01
2023-05-14T07:02:21.380Z,67.45
2023-05-14T07:04:50.700Z,66.32
2023-05-14T07:07:21.319Z,65.02
2023-05-14T07:09:51.865Z,65.03
2023-05-14T07:12:22.717Z,64.14
2023-05-14T07:14:53.971Z,65.05
2023-05-14T07:17:22.959Z,67.05
2023-05-14T07:19:51.787Z,66.50
2023-05-14T07:22:23.098Z,64.20
2023-05-14T07:24:55.954Z,63.19
2023-05-14T07:27:24.936Z,64.51
2023-05-14T07:29:55.080Z,63.13
2023-05-14T07:32:25.538Z,61.90
2023-05-14T07:34:54.309Z,63.51
2023-05-14T07:37:24.158Z,63.82
2023-05-14T07:39:56.249Z,63.21
2023-05-14T07:42:35.981Z,61.02
2023-05-14T07:45:09.659Z,62.57
2023-05-14T07:47:38.821Z,62.25
2023-05-14T07:50:12.136Z,61.53
2023-05-14T07:52:45.617Z,62.04
2023-05-14T07:55:17.879Z,61.13
2023-05-14T07:57:46.830Z,60.93
2023-05-14T08:00:16.834Z,60.38
2023-05-14T08:02:46.458Z,59.41
2023-05-14T08:05:15.411Z,59.88
2023-05-14T08:07:44.102Z,57.92
2023-05-14T08:10:12.977Z,60.10
2023-05-14T08:12:43.043Z,61.10
2023-05-14T08:15:12.343Z,60.50
2023-05-14T08:17:41.195Z,58.79
2023-05-14T08:20:13.345Z,56.48
2023-05-14T08:22:42.946Z,57.78
2023-05-14T08:25:12.225Z,57.53
2023-05-14T08:27:42.940Z,57.58
2023-05-14T08:30:13.395Z,58.40
2023-05-14T08:32:42.889Z,58.09
2023-05-14T08:35:12.247Z,57.70
2023-05-14T08:37:41.089Z,57.88
2023-05-14T08:40:11.800Z,58.14
2023-05-14T08:42:44.999Z,58.77
2023-05-14T08:45:19.565Z,58.10
2023-05-14T08:47:52.039Z,57.57
2023-05-14T08:50:23.036Z,55.30
2023-05-14T08:52:52.966Z,52.97
2023-05-14T08:55:22.579Z,53.35
2023-05-14T08:57:52.798Z,54.69
2023-05-14T09:00:23.178Z,54.51
2023-05-14T09:02:53.545Z,52.84
2023-05-14T09:05:24.811Z,52.43
2023-05-14T09:07:53.749Z,50.72
2023-05-14T09:10:23.679Z,49.37
2023-05-14T09:12:54.157Z,49.01
2023-05-14T09:15:23.867Z,47.78
2023-05-14T09:17:53.306Z,48.34
2023-05-14T09:20:23.539Z,47.23
2023-05-14T09:22:55.436Z,47.56
2023-05-14T09:25:29.155Z,48.00
2023-05-14T09:28:00.200Z,47.32
2023-05-14T09:30:32.258Z,46.68
2023-05-14T09:33:01.755Z,47.01
2023-05-14T09:35:32.440Z,45.48
2023-05-14T09:38:01.251Z,46.04
2023-05-14T09:40:30.218Z,46.64
2023-05-14T09:43:01.970Z,48.70
2023-05-14T09:45:31.805Z,48.31
2023-05-14T09:48:02.609Z,49.55
2023-05-14T09:50:31.575Z,50.46
2023-05-14T09:53:01.952Z,50.12
2023-05-14T09:55:32.488Z,49.73
2023-05-14T09:58:11.931Z,50.25
2023-05-14T10:00:45.050Z,49.01
2023-05-14T10:03:19.633Z,48.35
2023-05-14T10:05:52.316Z,47.76
2023-05-14T10:08:29.095Z,48.27
2023-05-14T10:11:04.805Z,47.50
2023-05-14T10:13:43.003Z,47.64
2023-05-14T10:16:21.114Z,46.01
2023-05-14T10:18:57.917Z,45.28
2023-05-14T10:21:31.570Z,46.21
2023-05-14T10:24:00.468Z,46.33
2023-05-14T10:26:30.252Z,46.31
2023-05-14T10:29:01.884Z,44.94
2023-05-14T10:31:50.533Z,45.71
2023-05-14T10:34:43.414Z,44.18
2023-05-14T10:37:14.985Z,44.31
2023-05-14T10:39:48.986Z,46.94
2023-05-14T10:42:22.193Z,45.84
2023-05-14T10:44:58.869Z,44.15
2023-05-14T10:47:29.489Z,43.72
2023-05-14T10:50:06.978Z,43.69
2023-05-14T10:52:37.621Z,44.62
2023-05-14T10:55:09.231Z,43.09
2023-05-14T10:57:41.168Z,43.20
2023-05-14T11:00:14.570Z,43.84
2023-05-14T11:02:45.491Z,43.99
2023-05-14T11:05:20.089Z,44.02
2023-05-14T11:07:51.230Z,45.08
2023-05-14T11:10:22.516Z,44.92
2023-05-14T11:12:54.016Z,45.16
2023-05-14T11:15:28.503Z,45.20
2023-05-14T11:17:57.331Z,45.40
2023-05-14T11:20:26.165Z,43.97
2023-05-14T11:22:55.410Z,45.26
2023-05-14T11:25:25.947Z,44.87
2023-05-14T11:27:58.830Z,45.24
2023-05-14T11:30:29.505Z,45.78
2023-05-14T11:33:00.599Z,43.12
2023-05-14T11:35:31.628Z,43.84
2023-05-14T11:38:00.324Z,43.80
2023-05-14T11:40:29.883Z,43.24
2023-05-14T11:43:03.671Z,43.91
2023-05-14T11:45:34.298Z,43.52
2023-05-14T11:48:03.399Z,43.75
2023-05-14T11:50:32.083Z,44.33
2023-05-14T11:53:00.813Z,43.11
2023-05-14T11:55:30.528Z,44.24
2023-05-14T11:57:59.264Z,44.52
2023-05-14T12:00:28.769Z,44.13
2023-05-14T12:02:59.411Z,43.65
2023-05-14T12:05:28.146Z,43.29
2023-05-14T12:07:57.683Z,42.79
2023-05-14T12:10:26.543Z,42.03
2023-05-14T12:12:55.733Z,42.67
2023-05-14T12:15:24.958Z,42.98
2023-05-14T12:17:53.738Z,43.12
2023-05-14T12:20:26.406Z,42.08
2023-05-14T12:22:56.531Z,41.23
2023-05-14T12:25:27.615Z,41.55
2023-05-14T12:27:56.519Z,41.07
2023-05-14T12:30:25.278Z,42.98
2023-05-14T12:32:53.979Z,41.93
2023-05-14T12:35:24.456Z,42.20
2023-05-14T12:37:56.317Z,41.66
2023-05-14T12:40:25.517Z,41.70
2023-05-14T12:42:56.688Z,42.57
2023-05-14T12:45:26.051Z,42.18
2023-05-14T12:47:54.907Z,43.09
2023-05-14T12:50:28.307Z,42.49
2023-05-14T12:53:00.612Z,43.68
2023-05-14T12:55:29.462Z,43.10
2023-05-14T12:57:58.273Z,40.24
2023-05-14T13:00:27.122Z,41.98
2023-05-14T13:02:55.859Z,38.04
2023-05-14T13:05:24.742Z,37.33
2023-05-14T13:07:55.752Z,35.92
2023-05-14T13:10:24.872Z,34.59
2023-05-14T13:12:53.775Z,34.07
2023-05-14T13:15:22.730Z,33.44
2023-05-14T13:17:51.692Z,34.58
2023-05-14T13:20:20.572Z,36.10
2023-05-14T13:22:49.346Z,37.36
2023-05-14T13:25:19.680Z,38.01
2023-05-14T13:27:50.811Z,39.88
2023-05-14T13:30:20.092Z,39.50
2023-05-14T13:32:48.878Z,40.62
2023-05-14T13:35:17.660Z,40.35
2023-05-14T13:37:46.587Z,40.80
2023-05-14T13:40:15.490Z,40.54
2023-05-14T13:42:45.745Z,41.82
2023-05-14T13:45:14.623Z,40.97
2023-05-14T13:47:43.367Z,41.88
2023-05-14T13:50:12.606Z,42.14
2023-05-14T13:52:41.306Z,41.39
2023-05-14T13:55:10.835Z,42.09
2023-05-14T13:57:41.773Z,43.08
2023-05-14T14:00:13.592Z,42.22
2023-05-14T14:02:42.297Z,42.90
2023-05-14T14:05:11.458Z,43.96
2023-05-14T14:07:40.755Z,43.61
2023-05-14T14:10:11.404Z,43.58
2023-05-14T14:12:40.760Z,43.52
2023-05-14T14:15:12.733Z,42.59
2023-05-14T14:17:42.009Z,43.10
2023-05-14T14:20:11.767Z,43.02
2023-05-14T14:22:42.317Z,43.45
2023-05-14T14:25:12.696Z,43.33
2023-05-14T14:27:41.766Z,43.22
2023-05-14T14:30:16.671Z,43.86
2023-05-14T14:32:46.152Z,44.32
2023-05-14T14:35:17.491Z,44.35
2023-05-14T14:37:49.412Z,44.09
2023-05-14T14:40:19.969Z,44.29
2023-05-14T14:42:48.806Z,44.73
2023-05-14T14:45:19.319Z,45.18
2023-05-14T14:47:50.436Z,45.48
2023-05-14T14:50:19.631Z,45.86
2023-05-14T14:52:48.412Z,45.21
2023-05-14T14:55:18.184Z,45.56
2023-05-14T14:57:46.941Z,46.12
2023-05-14T15:00:21.260Z,46.30
2023-05-14T15:02:50.064Z,46.30
2023-05-14T15:05:18.912Z,45.68
2023-05-14T15:07:47.654Z,46.15
2023-05-14T15:10:17.496Z,47.04
2023-05-14T15:12:46.335Z,46.66
2023-05-14T15:15:15.138Z,46.67
2023-05-14T15:17:45.334Z,46.85
2023-05-14T15:20:15.914Z,47.70
2023-05-14T15:22:46.382Z,47.00
2023-05-14T15:25:15.636Z,47.52
2023-05-14T15:27:45.715Z,46.80
2023-05-14T15:30:20.427Z,47.26
2023-05-14T15:32:51.169Z,47.18
2023-05-14T15:35:22.079Z,46.32
2023-05-14T15:37:51.681Z,45.57
2023-05-14T15:40:21.504Z,46.57
2023-05-14T15:42:50.517Z,47.22
2023-05-14T15:45:19.434Z,47.27
2023-05-14T15:47:49.829Z,47.48
2023-05-14T15:50:19.094Z,47.75
2023-05-14T15:52:48.260Z,47.60
2023-05-14T15:55:20.804Z,47.30
2023-05-14T15:57:49.509Z,47.49
2023-05-14T16:00:19.743Z,48.07
2023-05-14T16:02:52.825Z,48.02
2023-05-14T16:05:22.491Z,47.76
2023-05-14T16:07:53.134Z,48.17
2023-05-14T16:10:22.894Z,48.50
2023-05-14T16:12:51.985Z,48.01
2023-05-14T16:15:20.936Z,47.89
2023-05-14T16:17:51.140Z,47.79
2023-05-14T16:20:23.367Z,47.72
2023-05-14T16:22:53.107Z,47.91
2023-05-14T16:25:22.920Z,48.25
2023-05-14T16:27:53.045Z,48.11
2023-05-14T16:30:22.476Z,49.21
2023-05-14T16:32:54.020Z,50.65
2023-05-14T16:35:24.127Z,49.06
2023-05-14T16:37:53.043Z,51.00
2023-05-14T16:40:23.353Z,49.36
2023-05-14T16:42:52.658Z,49.43
2023-05-14T16:45:21.954Z,50.35
2023-05-14T16:47:53.178Z,50.29
2023-05-14T16:50:23.491Z,49.37
2023-05-14T16:52:55.299Z,47.13
2023-05-14T16:55:26.913Z,45.93
2023-05-14T16:57:56.547Z,45.67
2023-05-14T17:00:27.132Z,46.46
2023-05-14T17:02:58.864Z,46.03
2023-05-14T17:05:30.035Z,47.57
2023-05-14T17:07:59.655Z,48.16
2023-05-14T17:10:31.287Z,48.44
2023-05-14T17:13:02.375Z,48.90
2023-05-14T17:15:31.562Z,48.63
2023-05-14T17:18:02.358Z,49.25
2023-05-14T17:20:35.592Z,49.08
2023-05-14T17:23:04.519Z,48.82
2023-05-14T17:25:34.404Z,49.07
2023-05-14T17:28:03.869Z,48.52
2023-05-14T17:30:33.488Z,48.92
2023-05-14T17:33:04.433Z,48.32
2023-05-14T17:35:36.378Z,49.37
2023-05-14T17:38:05.409Z,49.42
2023-05-14T17:40:34.770Z,50.22
2023-05-14T17:43:03.779Z,50.51
2023-05-14T17:45:42.640Z,50.83
2023-05-14T17:48:17.058Z,51.55
2023-05-14T17:50:46.284Z,50.87
2023-05-14T17:53:16.163Z,49.77
2023-05-14T17:55:45.312Z,49.84
2023-05-14T17:58:15.979Z,50.01
2023-05-14T18:00:45.135Z,50.40
2023-05-14T18:03:14.318Z,50.63
2023-05-14T18:05:44.941Z,50.18
2023-05-14T18:08:14.644Z,51.28
2023-05-14T18:10:43.374Z,52.32
2023-05-14T18:13:12.227Z,52.50
2023-05-14T18:15:42.015Z,52.00
2023-05-14T18:18:10.947Z,52.51
2023-05-14T18:20:39.900Z,53.02
2023-05-14T18:23:10.666Z,52.35
2023-05-14T18:25:40.591Z,53.33
2023-05-14T18:28:10.466Z,53.72
2023-05-14T18:30:39.199Z,54.22
2023-05-14T18:33:08.215Z,54.83
2023-05-14T18:35:37.392Z,55.09
2023-05-14T18:38:08.115Z,55.38
2023-05-14T18:40:38.283Z,55.25
2023-05-14T18:43:08.467Z,55.90
2023-05-14T18:45:37.319Z,56.28
2023-05-14T18:48:07.387Z,55.35
2023-05-14T18:50:38.693Z,54.23
2023-05-14T18:53:08.524Z,54.70
2023-05-14T18:55:39.132Z,55.08
2023-05-14T18:58:07.904Z,55.30
2023-05-14T19:00:37.725Z,55.19
2023-05-14T19:03:07.685Z,55.66
2023-05-14T19:05:37.598Z,56.84
2023-05-14T19:08:07.325Z,56.67
2023-05-14T19:10:37.612Z,57.65
2023-05-14T19:13:07.936Z,57.51
2023-05-14T19:15:37.175Z,58.17
2023-05-14T19:18:06.645Z,57.54
2023-05-14T19:20:38.370Z,57.67
2023-05-14T19:23:07.259Z,57.89
2023-05-14T19:25:37.694Z,58.72
2023-05-14T19:28:06.921Z,59.29
2023-05-14T19:30:35.735Z,58.68
2023-05-14T19:33:04.562Z,59.04
2023-05-14T19:35:33.366Z,59.63
2023-05-14T19:38:02.037Z,60.09
2023-05-14T19:40:31.853Z,59.85
2023-05-14T19:43:02.074Z,60.67
2023-05-14T19:45:31.331Z,61.05
2023-05-14T19:48:00.203Z,61.31
2023-05-14T19:50:29.081Z,62.09
2023-05-14T19:52:57.927Z,62.58
2023-05-14T19:55:26.965Z,63.09
2023-05-14T19:57:55.809Z,63.49
2023-05-14T20:00:26.700Z,63.58
2023-05-14T20:02:59.491Z,63.86
2023-05-14T20:05:28.538Z,63.91
2023-05-14T20:07:57.239Z,63.50
2023-05-14T20:10:26.019Z,64.43
2023-05-14T20:12:54.906Z,65.35
2023-05-14T20:15:23.591Z,65.05
2023-05-14T20:17:54.106Z,65.41
2023-05-14T20:20:24.580Z,66.12
2023-05-14T20:22:53.420Z,66.09
2023-05-14T20:25:22.084Z,65.28
2023-05-14T20:27:52.569Z,65.16
2023-05-14T20:30:21.422Z,64.98
2023-05-14T20:32:50.637Z,65.98
2023-05-14T20:35:20.854Z,65.95
2023-05-14T20:37:50.492Z,66.77
2023-05-14T20:40:19.418Z,66.35
2023-05-14T20:42:50.359Z,66.60
2023-05-14T20:45:19.469Z,66.06
2023-05-14T20:47:48.214Z,66.04
2023-05-14T20:50:16.976Z,65.97
2023-05-14T20:52:47.255Z,65.96
2023-05-14T20:55:16.237Z,65.47
2023-05-14T20:57:44.828Z,65.38
2023-05-14T21:00:24.340Z,65.85
2023-05-14T21:02:53.078Z,66.60
2023-05-14T21:05:23.061Z,66.99
2023-05-14T21:07:53.567Z,67.30
2023-05-14T21:10:22.586Z,66.91
2023-05-14T21:12:52.440Z,67.00
2023-05-14T21:15:21.209Z,66.71
2023-05-14T21:17:49.919Z,67.16
2023-05-14T21:20:18.596Z,67.33
2023-05-14T21:22:47.251Z,68.33
2023-05-14T21:25:17.526Z,68.29
2023-05-14T21:27:46.401Z,68.27
2023-05-14T21:30:16.158Z,68.18
2023-05-14T21:32:44.815Z,68.83
2023-05-14T21:35:13.478Z,69.19
2023-05-14T21:37:42.371Z,69.78
2023-05-14T21:40:13.308Z,70.23
2023-05-14T21:42:43.338Z,69.96
2023-05-14T21:45:12.761Z,69.47
2023-05-14T21:47:41.464Z,70.12
2023-05-14T21:50:11.039Z,70.37
2023-05-14T21:52:39.755Z,69.63
2023-05-14T21:55:09.341Z,69.18
2023-05-14T21:57:38.187Z,70.19
2023-05-14T22:00:13.019Z,70.61
2023-05-14T22:02:43.758Z,71.34
2023-05-14T22:05:12.526Z,70.46
2023-05-14T22:07:41.559Z,70.21
2023-05-14T22:10:11.465Z,71.03
2023-05-14T22:12:40.169Z,72.00
2023-05-14T22:15:12.469Z,72.31
2023-05-14T22:17:41.437Z,71.93
2023-05-14T22:20:11.369Z,71.57
2023-05-14T22:22:40.624Z,70.89
2023-05-14T22:25:10.137Z,71.02
2023-05-14T22:27:38.828Z,71.93
2023-05-14T22:30:11.574Z,71.15
2023-05-14T22:32:40.568Z,70.62
2023-05-14T22:35:11.340Z,71.20
2023-05-14T22:53:14.834Z,71.83
2023-05-14T22:55:43.692Z,71.31
2023-05-14T22:58:12.946Z,70.81
2023-05-14T23:00:41.664Z,70.97
2023-05-14T23:03:10.345Z,70.97
2023-05-14T23:05:39.518Z,71.35
2023-05-14T23:08:08.343Z,71.10
2023-05-14T23:10:38.358Z,70.70
2023-05-14T23:13:07.029Z,70.84
2023-05-14T23:15:35.854Z,70.99
2023-05-14T23:18:04.823Z,70.76
2023-05-14T23:20:33.660Z,71.08
2023-05-14T23:23:02.360Z,71.03
2023-05-14T23:25:31.217Z,71.34
2023-05-14T23:28:01.708Z,71.22
2023-05-14T23:30:30.485Z,70.79
2023-05-14T23:32:59.174Z,70.89
2023-05-14T23:35:27.988Z,70.85
2023-05-14T23:37:56.865Z,70.55
2023-05-14T23:40:25.525Z,70.62
2023-05-14T23:42:54.315Z,70.81
2023-05-14T23:45:24.641Z,71.21
2023-05-14T23:47:54.458Z,71.10
2023-05-14T23:50:23.201Z,71.14
2023-05-14T23:52:53.202Z,71.12
2023-05-14T23:55:22.271Z,71.74
2023-05-14T23:57:51.262Z,71.83
